| time (UTC) | temp F | wind direction | speed MPH | gust MPH | rain 1hr in | rain 24hr in | rain mn in | humidity % | barometer mb |
| 20260510033623 | 67 | 79 | 5.0 | 14.0 | 0.00 | 0.23 | 0.23 | 86 | 1010.1 |
| 20260510033121 | 66 | 83 | 7.0 | 17.0 | 0.00 | 0.23 | 0.23 | 86 | 1010.4 |
| 20260510032617 | 66 | 95 | 8.0 | 11.0 | 0.00 | 0.23 | 0.23 | 86 | 1010.2 |
| 20260510032113 | 66 | 76 | 13.0 | 19.0 | 0.00 | 0.23 | 0.23 | 86 | 1010.3 |
| 20260510031607 | 66 | 79 | 13.0 | 16.0 | 0.00 | 0.23 | 0.23 | 89 | 1010.5 |
| 20260510031104 | 66 | 110 | 10.0 | 10.0 | 0.00 | 0.23 | 0.23 | 90 | 1010.4 |
| 20260510030559 | 65 | 56 | 2.0 | 15.0 | 0.00 | 0.23 | 0.23 | 90 | 1010.3 |
| 20260510030057 | 65 | 96 | 9.0 | 12.0 | 0.00 | 0.23 | 0.23 | 91 | 1010.5 |
| 20260510025554 | 64 | 34 | 3.0 | 17.0 | 0.09 | 0.23 | 0.23 | 91 | 1010.6 |
| 20260510025052 | 65 | 50 | 6.0 | 15.0 | 0.33 | 0.23 | 0.23 | 91 | 1010.2 |
| 20260510024548 | 65 | 56 | 13.0 | 15.0 | 0.90 | 0.22 | 0.22 | 90 | 1009.6 |
| 20260510024044 | 67 | 66 | 12.0 | 15.0 | 0.78 | 0.17 | 0.17 | 86 | 1010.4 |
| 20260510023541 | 69 | 68 | 5.0 | 10.0 | 0.31 | 0.06 | 0.06 | 81 | 1011.0 |
| 20260510023038 | 74 | 102 | 7.0 | 10.0 | 0.21 | 0.04 | 0.04 | 70 | 1010.5 |
| 20260510022537 | 79 | 16 | 3.0 | 11.0 | 0.00 | 0.00 | 0.00 | 52 | 1009.5 |
| 20260510022031 | 79 | 61 | 6.0 | 11.0 | 0.00 | 0.00 | 0.00 | 51 | 1009.1 |
| 20260510021528 | 79 | 70 | 8.0 | 10.0 | 0.00 | 0.00 | 0.00 | 51 | 1010.2 |
| 20260510021026 | 78 | 92 | 7.0 | 13.0 | 0.00 | 0.00 | 0.00 | 53 | 1009.2 |
| 20260510020520 | 79 | 291 | 2.0 | 3.0 | 0.00 | 0.00 | 0.00 | 53 | 1009.1 |
| 20260510020016 | 79 | 304 | 0.0 | 2.0 | 0.00 | 0.00 | 0.00 | 52 | 1008.2 |
| 20260510015512 | 80 | 112 | 4.0 | 7.0 | 0.00 | 0.00 | 0.00 | 50 | 1007.7 |
| 20260510015008 | 80 | 66 | 3.0 | 6.0 | 0.00 | 0.00 | 0.00 | 50 | 1007.6 |
| 20260510014505 | 80 | 102 | 3.0 | 6.0 | 0.00 | 0.00 | 0.00 | 49 | 1007.6 |
| 20260510014002 | 81 | 91 | 4.0 | 8.0 | 0.00 | 0.00 | 0.00 | 48 | 1007.3 |
| 20260510013456 | 81 | 97 | 4.0 | 6.0 | 0.00 | 0.00 | 0.00 | 48 | 1007.8 |
| 20260510012952 | 81 | 116 | 4.0 | 4.0 | 0.00 | 0.00 | 0.00 | 47 | 1007.8 |
| 20260510012447 | 81 | 81 | 3.0 | 5.0 | 0.00 | 0.00 | 0.00 | 47 | 1007.7 |
| 20260510011943 | 81 | 99 | 3.0 | 4.0 | 0.00 | 0.00 | 0.00 | 47 | 1007.5 |
| 20260510011442 | 81 | 41 | 4.0 | 5.0 | 0.00 | 0.00 | 0.00 | 46 | 1007.2 |
| 20260510010939 | 82 | 105 | 1.0 | 5.0 | 0.00 | 0.00 | 0.00 | 46 | 1007.0 |
| 20260510010437 | 82 | 70 | 3.0 | 6.0 | 0.00 | 0.00 | 0.00 | 46 | 1007.2 |
| 20260510005933 | 82 | 82 | 4.0 | 8.0 | 0.00 | 0.00 | 0.00 | 45 | 1007.0 |
| 20260510005429 | 82 | 102 | 5.0 | 7.0 | 0.00 | 0.00 | 0.00 | 44 | 1007.0 |
| 20260510004927 | 83 | 86 | 2.0 | 7.0 | 0.00 | 0.00 | 0.00 | 44 | 1007.2 |
| 20260510004424 | 83 | 101 | 3.0 | 6.0 | 0.00 | 0.00 | 0.00 | 43 | 1007.5 |
| 20260510003922 | 83 | 97 | 2.0 | 3.0 | 0.00 | 0.00 | 0.00 | 42 | 1007.6 |
| 20260510003419 | 84 | 235 | 2.0 | 4.0 | 0.00 | 0.00 | 0.00 | 42 | 1007.5 |
| 20260510002918 | 84 | 138 | 2.0 | 6.0 | 0.00 | 0.00 | 0.00 | 42 | 1007.3 |
| 20260510002415 | 84 | 132 | 3.0 | 5.0 | 0.00 | 0.00 | 0.00 | 42 | 1007.2 |
| 20260510001911 | 84 | 96 | 6.0 | 7.0 | 0.00 | 0.00 | 0.00 | 41 | 1007.1 |
| 20260510001409 | 84 | 105 | 5.0 | 9.0 | 0.00 | 0.00 | 0.00 | 41 | 1007.0 |
| 20260510000906 | 84 | 87 | 2.0 | 8.0 | 0.00 | 0.00 | 0.00 | 41 | 1007.3 |
| 20260510000403 | 84 | 50 | 3.0 | 12.0 | 0.00 | 0.00 | 0.00 | 41 | 1007.5 |
| 20260509235859 | 85 | 100 | 5.0 | 7.0 | 0.00 | 0.00 | 0.00 | 41 | 1007.3 |
| 20260509235356 | 85 | 87 | 5.0 | 9.0 | 0.00 | 0.00 | 0.00 | 41 | 1007.4 |
| 20260509234852 | 85 | 60 | 6.0 | 8.0 | 0.00 | 0.00 | 0.00 | 42 | 1007.4 |
| 20260509234349 | 85 | 151 | 3.0 | 8.0 | 0.00 | 0.00 | 0.00 | 42 | 1007.2 |
| 20260509233847 | 85 | 164 | 4.0 | 11.0 | 0.00 | 0.00 | 0.00 | 42 | 1007.3 |
| 20260509233345 | 85 | 71 | 3.0 | 10.0 | 0.00 | 0.00 | 0.00 | 42 | 1007.0 |
| 20260509232840 | 86 | 62 | 4.0 | 11.0 | 0.00 | 0.00 | 0.00 | 42 | 1007.2 |
| 20260509232338 | 86 | 95 | 7.0 | 12.0 | 0.00 | 0.00 | 0.00 | 41 | 1007.2 |
| 20260509231834 | 86 | 99 | 5.0 | 14.0 | 0.00 | 0.00 | 0.00 | 42 | 1007.3 |
| 20260509231331 | 86 | 158 | 4.0 | 6.0 | 0.00 | 0.00 | 0.00 | 42 | 1007.3 |
| 20260509230829 | 86 | 88 | 2.0 | 7.0 | 0.00 | 0.00 | 0.00 | 43 | 1007.5 |
| 20260509230325 | 86 | 57 | 2.0 | 13.0 | 0.00 | 0.00 | 0.00 | 43 | 1007.5 |
| 20260509225820 | 86 | 129 | 3.0 | 9.0 | 0.00 | 0.00 | 0.00 | 42 | 1007.7 |
| 20260509225318 | 86 | 86 | 3.0 | 11.0 | 0.00 | 0.00 | 0.00 | 42 | 1007.5 |
| 20260509224814 | 86 | 184 | 1.0 | 8.0 | 0.00 | 0.00 | 0.00 | 43 | 1007.7 |
| 20260509224310 | 86 | 72 | 5.0 | 9.0 | 0.00 | 0.00 | 0.00 | 43 | 1007.6 |
| 20260509223806 | 86 | 82 | 4.0 | 5.0 | 0.00 | 0.00 | 0.00 | 44 | 1007.7 |
| 20260509223304 | 86 | 95 | 4.0 | 10.0 | 0.00 | 0.00 | 0.00 | 44 | 1007.8 |
| 20260509222800 | 87 | 106 | 5.0 | 6.0 | 0.00 | 0.00 | 0.00 | 43 | 1008.1 |
| 20260509222256 | 87 | 51 | 1.0 | 6.0 | 0.00 | 0.00 | 0.00 | 43 | 1008.2 |
| 20260509221752 | 87 | 67 | 3.0 | 5.0 | 0.00 | 0.00 | 0.00 | 44 | 1008.2 |
| 20260509221249 | 87 | 235 | 0.0 | 4.0 | 0.00 | 0.00 | 0.00 | 43 | 1008.2 |
| 20260509220744 | 87 | 96 | 4.0 | 6.0 | 0.00 | 0.00 | 0.00 | 43 | 1008.4 |
| 20260509220241 | 88 | 110 | 1.0 | 9.0 | 0.00 | 0.00 | 0.00 | 43 | 1008.4 |
| 20260509215736 | 87 | 202 | 1.0 | 5.0 | 0.00 | 0.00 | 0.00 | 43 | 1008.4 |
| 20260509215233 | 87 | 117 | 5.0 | 7.0 | 0.00 | 0.00 | 0.00 | 42 | 1008.3 |
| 20260509214730 | 88 | 151 | 6.0 | 7.0 | 0.00 | 0.00 | 0.00 | 43 | 1008.3 |
| 20260509214227 | 87 | 225 | 1.0 | 5.0 | 0.00 | 0.00 | 0.00 | 43 | 1008.4 |
| 20260509213724 | 87 | 113 | 4.0 | 6.0 | 0.00 | 0.00 | 0.00 | 41 | 1008.5 |
| 20260509213219 | 88 | 72 | 6.0 | 6.0 | 0.00 | 0.00 | 0.00 | 40 | 1008.4 |
| 20260509212717 | 88 | 186 | 2.0 | 4.0 | 0.00 | 0.00 | 0.00 | 41 | 1008.5 |
| 20260509212214 | 88 | 71 | 3.0 | 5.0 | 0.00 | 0.00 | 0.00 | 42 | 1008.6 |
| 20260509211710 | 87 | 246 | 2.0 | 5.0 | 0.00 | 0.00 | 0.00 | 41 | 1008.9 |
| 20260509211207 | 88 | 53 | 6.0 | 8.0 | 0.00 | 0.00 | 0.00 | 40 | 1008.9 |
| 20260509210704 | 87 | 172 | 2.0 | 3.0 | 0.00 | 0.00 | 0.00 | 40 | 1009.1 |
| 20260509210201 | 88 | 67 | 1.0 | 2.0 | 0.00 | 0.00 | 0.00 | 42 | 1009.2 |
| 20260509205656 | 87 | 81 | 4.0 | 5.0 | 0.00 | 0.00 | 0.00 | 40 | 1009.0 |
| 20260509205155 | 88 | 262 | 2.0 | 5.0 | 0.00 | 0.00 | 0.00 | 39 | 1009.2 |
| 20260509204652 | 88 | 241 | 2.0 | 3.0 | 0.00 | 0.00 | 0.00 | 41 | 1009.5 |
| 20260509204148 | 88 | 137 | 1.0 | 5.0 | 0.00 | 0.00 | 0.00 | 37 | 1009.5 |
| 20260509203644 | 87 | 224 | 1.0 | 5.0 | 0.00 | 0.00 | 0.00 | 42 | 1009.3 |
| 20260509203143 | 88 | 128 | 4.0 | 7.0 | 0.00 | 0.00 | 0.00 | 39 | 1009.6 |
| 20260509202643 | 87 | 52 | 2.0 | 4.0 | 0.00 | 0.00 | 0.00 | 41 | 1009.5 |
| 20260509202138 | 87 | 215 | 2.0 | 4.0 | 0.00 | 0.00 | 0.00 | 45 | 1009.6 |
| 20260509201633 | 87 | 221 | 1.0 | 6.0 | 0.00 | 0.00 | 0.00 | 43 | 1009.4 |
| 20260509201131 | 86 | 101 | 3.0 | 5.0 | 0.00 | 0.00 | 0.00 | 42 | 1009.5 |
| 20260509200627 | 86 | 69 | 2.0 | 8.0 | 0.00 | 0.00 | 0.00 | 42 | 1009.5 |
| 20260509200123 | 86 | 63 | 2.0 | 3.0 | 0.00 | 0.00 | 0.00 | 46 | 1009.6 |
| 20260509195619 | 86 | 143 | 3.0 | 8.0 | 0.00 | 0.00 | 0.00 | 44 | 1009.5 |
| 20260509195113 | 86 | 0 | 0.0 | 6.0 | 0.00 | 0.00 | 0.00 | 43 | 1009.7 |
| 20260509194612 | 87 | 185 | 5.0 | 5.0 | 0.00 | 0.00 | 0.00 | 45 | 1010.0 |
| 20260509194111 | 86 | 109 | 2.0 | 3.0 | 0.00 | 0.00 | 0.00 | 47 | 1010.0 |
| 20260509193606 | 86 | 37 | 3.0 | 4.0 | 0.00 | 0.00 | 0.00 | 45 | 1010.1 |
| 20260509193102 | 86 | 233 | 3.0 | 5.0 | 0.00 | 0.00 | 0.00 | 42 | 1010.3 |
| 20260509192559 | 86 | 54 | 1.0 | 4.0 | 0.00 | 0.00 | 0.00 | 45 | 1010.1 |
| 20260509192054 | 85 | 18 | 2.0 | 5.0 | 0.00 | 0.00 | 0.00 | 50 | 1010.1 |
| 20260509191555 | 85 | 254 | 0.0 | 6.0 | 0.00 | 0.00 | 0.00 | 49 | 1010.5 |
| 20260509191051 | 85 | 57 | 2.0 | 6.0 | 0.00 | 0.00 | 0.00 | 47 | 1010.4 |
| 20260509190548 | 85 | 140 | 3.0 | 6.0 | 0.00 | 0.00 | 0.00 | 48 | 1010.5 |
| 20260509190046 | 84 | 32 | 1.0 | 3.0 | 0.00 | 0.00 | 0.00 | 50 | 1010.7 |
| 20260509185543 | 84 | 151 | 3.0 | 3.0 | 0.00 | 0.00 | 0.00 | 51 | 1010.6 |
| 20260509185039 | 84 | 123 | 2.0 | 6.0 | 0.00 | 0.00 | 0.00 | 53 | 1010.6 |
| 20260509184537 | 83 | 212 | 3.0 | 5.0 | 0.00 | 0.00 | 0.00 | 52 | 1010.8 |
| 20260509184033 | 84 | 259 | 1.0 | 5.0 | 0.00 | 0.00 | 0.00 | 54 | 1010.7 |
| 20260509183529 | 85 | 36 | 3.0 | 4.0 | 0.00 | 0.00 | 0.00 | 52 | 1010.8 |
| 20260509183025 | 83 | 39 | 3.0 | 4.0 | 0.00 | 0.00 | 0.00 | 57 | 1010.9 |
| 20260509182521 | 83 | 28 | 1.0 | 5.0 | 0.00 | 0.00 | 0.00 | 54 | 1010.9 |
| 20260509182018 | 83 | 234 | 2.0 | 6.0 | 0.00 | 0.00 | 0.00 | 58 | 1011.2 |
| 20260509181517 | 82 | 251 | 3.0 | 4.0 | 0.00 | 0.00 | 0.00 | 55 | 1010.9 |
| 20260509181014 | 82 | 96 | 3.0 | 5.0 | 0.00 | 0.00 | 0.00 | 58 | 1011.3 |
| 20260509180509 | 81 | 53 | 0.0 | 4.0 | 0.00 | 0.00 | 0.00 | 62 | 1011.0 |
| 20260509180007 | 81 | 119 | 1.0 | 5.0 | 0.00 | 0.00 | 0.00 | 59 | 1011.4 |
| 20260509175502 | 81 | 165 | 2.0 | 4.0 | 0.00 | 0.00 | 0.00 | 60 | 1011.6 |
| 20260509174959 | 81 | 249 | 2.0 | 4.0 | 0.00 | 0.00 | 0.00 | 59 | 1011.9 |
| 20260509174455 | 80 | 142 | 2.0 | 4.0 | 0.00 | 0.00 | 0.00 | 62 | 1011.8 |
| 20260509173950 | 81 | 147 | 2.0 | 5.0 | 0.00 | 0.00 | 0.00 | 62 | 1011.9 |
| 20260509173444 | 81 | 64 | 3.0 | 5.0 | 0.00 | 0.00 | 0.00 | 61 | 1012.1 |
| 20260509172941 | 81 | 107 | 1.0 | 4.0 | 0.00 | 0.00 | 0.00 | 61 | 1012.1 |
| 20260509172438 | 80 | 59 | 0.0 | 5.0 | 0.00 | 0.00 | 0.00 | 64 | 1012.2 |
| 20260509171934 | 80 | 246 | 1.0 | 6.0 | 0.00 | 0.00 | 0.00 | 62 | 1012.3 |
| 20260509171430 | 79 | 167 | 4.0 | 5.0 | 0.00 | 0.00 | 0.00 | 65 | 1012.3 |
| 20260509170927 | 80 | 236 | 2.0 | 6.0 | 0.00 | 0.00 | 0.00 | 65 | 1012.5 |
| 20260509170422 | 79 | 249 | 3.0 | 3.0 | 0.00 | 0.00 | 0.00 | 65 | 1012.7 |
| 20260509165918 | 80 | 87 | 0.0 | 4.0 | 0.00 | 0.00 | 0.00 | 64 | 1012.4 |
| 20260509165412 | 80 | 70 | 1.0 | 5.0 | 0.00 | 0.00 | 0.00 | 64 | 1012.7 |
| 20260509164908 | 78 | 175 | 1.0 | 3.0 | 0.00 | 0.00 | 0.00 | 68 | 1012.7 |
| 20260509164404 | 79 | 66 | 0.0 | 3.0 | 0.00 | 0.00 | 0.00 | 65 | 1012.9 |
| 20260509163900 | 78 | 180 | 2.0 | 4.0 | 0.00 | 0.00 | 0.00 | 67 | 1012.9 |
| 20260509163357 | 78 | 229 | 3.0 | 5.0 | 0.00 | 0.00 | 0.00 | 66 | 1012.8 |
| 20260509162857 | 77 | 223 | 2.0 | 2.0 | 0.00 | 0.00 | 0.00 | 68 | 1012.8 |
| 20260509162355 | 79 | 43 | 1.0 | 5.0 | 0.00 | 0.00 | 0.00 | 63 | 1012.7 |
| 20260509161851 | 79 | 165 | 2.0 | 6.0 | 0.00 | 0.00 | 0.00 | 65 | 1012.6 |
| 20260509161348 | 78 | 238 | 2.0 | 3.0 | 0.00 | 0.00 | 0.00 | 67 | 1012.7 |
| 20260509160844 | 77 | 206 | 1.0 | 2.0 | 0.00 | 0.00 | 0.00 | 68 | 1012.9 |
| 20260509160339 | 77 | 117 | 0.0 | 6.0 | 0.00 | 0.00 | 0.00 | 69 | 1012.8 |
| 20260509155835 | 77 | 104 | 0.0 | 2.0 | 0.00 | 0.00 | 0.00 | 67 | 1012.6 |
| 20260509155331 | 77 | 284 | 1.0 | 3.0 | 0.00 | 0.00 | 0.00 | 67 | 1012.8 |
| 20260509154828 | 77 | 160 | 3.0 | 5.0 | 0.00 | 0.00 | 0.00 | 67 | 1012.8 |
| 20260509154324 | 77 | 125 | 1.0 | 4.0 | 0.00 | 0.00 | 0.00 | 67 | 1012.8 |
| 20260509153821 | 77 | 184 | 3.0 | 3.0 | 0.00 | 0.00 | 0.00 | 70 | 1012.9 |
| 20260509153318 | 76 | 170 | 0.0 | 3.0 | 0.00 | 0.00 | 0.00 | 67 | 1012.9 |
| 20260509152815 | 75 | 215 | 2.0 | 2.0 | 0.00 | 0.00 | 0.00 | 70 | 1012.9 |
| 20260509152311 | 75 | 78 | 2.0 | 3.0 | 0.00 | 0.00 | 0.00 | 69 | 1013.2 |
| 20260509151808 | 76 | 173 | 3.0 | 5.0 | 0.00 | 0.00 | 0.00 | 69 | 1012.9 |
| 20260509151304 | 77 | 167 | 2.0 | 3.0 | 0.00 | 0.00 | 0.00 | 68 | 1013.0 |
| 20260509150803 | 75 | 149 | 3.0 | 4.0 | 0.00 | 0.00 | 0.00 | 71 | 1012.8 |
| 20260509150301 | 75 | 86 | 2.0 | 3.0 | 0.00 | 0.00 | 0.00 | 71 | 1013.0 |
| 20260509145758 | 73 | 146 | 2.0 | 4.0 | 0.00 | 0.00 | 0.00 | 74 | 1012.9 |
| 20260509145257 | 73 | 214 | 1.0 | 2.0 | 0.00 | 0.00 | 0.00 | 75 | 1012.8 |
| 20260509144754 | 73 | 230 | 2.0 | 5.0 | 0.00 | 0.00 | 0.00 | 73 | 1012.9 |
| 20260509144251 | 75 | 214 | 2.0 | 4.0 | 0.00 | 0.00 | 0.00 | 71 | 1012.9 |
| 20260509143748 | 74 | 204 | 1.0 | 3.0 | 0.00 | 0.00 | 0.00 | 72 | 1013.1 |
| 20260509143245 | 73 | 107 | 1.0 | 2.0 | 0.00 | 0.00 | 0.00 | 76 | 1012.6 |
| 20260509142741 | 74 | 236 | 2.0 | 2.0 | 0.00 | 0.00 | 0.00 | 72 | 1013.0 |
| 20260509142237 | 74 | 170 | 2.0 | 3.0 | 0.00 | 0.00 | 0.00 | 72 | 1012.8 |
| 20260509141733 | 73 | 217 | 2.0 | 2.0 | 0.00 | 0.00 | 0.00 | 74 | 1012.8 |
| 20260509141231 | 72 | 139 | 0.0 | 4.0 | 0.00 | 0.00 | 0.00 | 75 | 1012.9 |
| 20260509140727 | 72 | 225 | 0.0 | 3.0 | 0.00 | 0.00 | 0.00 | 76 | 1012.9 |
| 20260509140225 | 71 | 220 | 1.0 | 2.0 | 0.00 | 0.00 | 0.00 | 77 | 1012.8 |
| 20260509135722 | 70 | 137 | 2.0 | 4.0 | 0.00 | 0.00 | 0.00 | 78 | 1012.9 |
| 20260509135220 | 71 | 48 | 2.0 | 4.0 | 0.00 | 0.00 | 0.00 | 78 | 1012.9 |
| 20260509134716 | 71 | 98 | 2.0 | 3.0 | 0.00 | 0.00 | 0.00 | 77 | 1012.7 |
| 20260509134214 | 71 | 49 | 0.0 | 2.0 | 0.00 | 0.00 | 0.00 | 77 | 1012.6 |
| 20260509133711 | 70 | 62 | 2.0 | 2.0 | 0.00 | 0.00 | 0.00 | 78 | 1012.6 |
| 20260509133208 | 68 | 154 | 0.0 | 1.0 | 0.00 | 0.00 | 0.00 | 85 | 1012.6 |
| 20260509132706 | 66 | 230 | 0.0 | 3.0 | 0.00 | 0.00 | 0.00 | 87 | 1012.8 |
| 20260509132204 | 66 | 220 | 2.0 | 3.0 | 0.00 | 0.00 | 0.00 | 86 | 1012.8 |
| 20260509131700 | 65 | 199 | 0.0 | 1.0 | 0.00 | 0.00 | 0.00 | 88 | 1013.0 |
| 20260509131157 | 64 | 202 | 0.0 | 3.0 | 0.00 | 0.00 | 0.00 | 91 | 1012.5 |
| 20260509130653 | 64 | 216 | 2.0 | 3.0 | 0.00 | 0.00 | 0.00 | 89 | 1012.3 |
| 20260509130149 | 63 | 215 | 0.0 | 0.0 | 0.00 | 0.00 | 0.00 | 90 | 1012.5 |
| 20260509125646 | 63 | 215 | 0.0 | 2.0 | 0.00 | 0.00 | 0.00 | 90 | 1012.1 |
| 20260509125143 | 63 | 89 | 0.0 | 1.0 | 0.00 | 0.00 | 0.00 | 91 | 1011.9 |
| 20260509124639 | 62 | 230 | 0.0 | 1.0 | 0.00 | 0.00 | 0.00 | 93 | 1011.8 |
| 20260509124136 | 62 | 205 | 0.0 | 1.0 | 0.00 | 0.00 | 0.00 | 94 | 1012.0 |
| 20260509123634 | 62 | 212 | 0.0 | 1.0 | 0.00 | 0.00 | 0.00 | 94 | 1011.3 |
| 20260509123131 | 62 | 139 | 0.0 | 0.0 | 0.00 | 0.00 | 0.00 | 96 | 1011.3 |
| 20260509122626 | 61 | 142 | 0.0 | 0.0 | 0.00 | 0.00 | 0.00 | 96 | 1011.2 |
| 20260509122124 | 60 | 141 | 0.0 | 0.0 | 0.00 | 0.00 | 0.00 | 96 | 1010.9 |
| 20260509121620 | 60 | 225 | 0.0 | 1.0 | 0.00 | 0.00 | 0.00 | 96 | 1011.1 |
| 20260509121118 | 60 | 119 | 0.0 | 2.0 | 0.00 | 0.00 | 0.00 | 96 | 1011.2 |
| 20260509120616 | 60 | 89 | 0.0 | 1.0 | 0.00 | 0.00 | 0.00 | 96 | 1011.2 |
| 20260509120114 | 60 | 212 | 0.0 | 2.0 | 0.00 | 0.00 | 0.00 | 96 | 1011.2 |
| 20260509115611 | 60 | 129 | 0.0 | 0.0 | 0.00 | 0.00 | 0.00 | 96 | 1011.0 |
| 20260509115109 | 60 | 113 | 0.0 | 1.0 | 0.00 | 0.00 | 0.00 | 96 | 1011.0 |
| 20260509114607 | 60 | 129 | 0.0 | 0.0 | 0.00 | 0.00 | 0.00 | 96 | 1010.9 |
| 20260509114106 | 60 | 226 | 0.0 | 1.0 | 0.00 | 0.00 | 0.00 | 96 | 1010.7 |
| 20260509113603 | 60 | 131 | 1.0 | 2.0 | 0.00 | 0.00 | 0.00 | 96 | 1010.9 |
| 20260509113100 | 60 | 100 | 2.0 | 3.0 | 0.00 | 0.00 | 0.00 | 96 | 1010.6 |
| 20260509112556 | 60 | 212 | 0.0 | 2.0 | 0.02 | 0.00 | 0.00 | 96 | 1010.8 |
| 20260509112054 | 60 | 129 | 0.0 | 2.0 | 0.02 | 0.00 | 0.00 | 96 | 1010.7 |
| 20260509111551 | 60 | 50 | 2.0 | 4.0 | 0.00 | 0.00 | 0.00 | 96 | 1010.5 |
| 20260509111048 | 60 | 77 | 3.0 | 4.0 | 0.00 | 0.00 | 0.00 | 96 | 1010.6 |
| 20260509110545 | 60 | 77 | 3.0 | 3.0 | 0.00 | 0.00 | 0.00 | 96 | 1010.6 |
| 20260509110042 | 60 | 79 | 2.0 | 3.0 | 0.00 | 0.00 | 0.00 | 96 | 1010.8 |
| 20260509105540 | 61 | 142 | 1.0 | 4.0 | 0.00 | 0.00 | 0.00 | 96 | 1010.4 |
| 20260509105037 | 61 | 49 | 2.0 | 4.0 | 0.00 | 0.00 | 0.00 | 96 | 1010.4 |
| 20260509104534 | 61 | 116 | 3.0 | 4.0 | 0.00 | 0.00 | 0.00 | 96 | 1010.3 |
| 20260509104031 | 60 | 75 | 4.0 | 5.0 | 0.00 | 0.00 | 0.00 | 96 | 1010.4 |
| 20260509103529 | 60 | 70 | 3.0 | 5.0 | 0.00 | 0.00 | 0.00 | 96 | 1010.3 |
| 20260509103027 | 60 | 102 | 2.0 | 4.0 | 0.00 | 0.00 | 0.00 | 96 | 1010.2 |
| 20260509102524 | 60 | 88 | 3.0 | 5.0 | 0.00 | 0.00 | 0.00 | 96 | 1010.2 |
| 20260509102020 | 60 | 51 | 3.0 | 5.0 | 0.00 | 0.00 | 0.00 | 96 | 1010.3 |
| 20260509101517 | 60 | 58 | 3.0 | 4.0 | 0.00 | 0.00 | 0.00 | 96 | 1010.2 |
| 20260509101014 | 60 | 72 | 3.0 | 5.0 | 0.00 | 0.00 | 0.00 | 96 | 1010.1 |
| 20260509100511 | 60 | 87 | 2.0 | 5.0 | 0.00 | 0.00 | 0.00 | 96 | 1010.0 |
| 20260509100008 | 60 | 94 | 4.0 | 5.0 | 0.00 | 0.00 | 0.00 | 95 | 1010.1 |
| 20260509095504 | 60 | 62 | 2.0 | 5.0 | 0.00 | 0.00 | 0.00 | 95 | 1010.2 |
| 20260509095002 | 60 | 70 | 2.0 | 4.0 | 0.00 | 0.00 | 0.00 | 95 | 1010.2 |
| 20260509094458 | 60 | 59 | 3.0 | 4.0 | 0.00 | 0.00 | 0.00 | 95 | 1010.0 |
| 20260509093956 | 60 | 72 | 3.0 | 4.0 | 0.00 | 0.00 | 0.00 | 95 | 1010.4 |
| 20260509093454 | 60 | 62 | 2.0 | 3.0 | 0.00 | 0.00 | 0.00 | 95 | 1010.5 |
| 20260509092951 | 60 | 113 | 2.0 | 4.0 | 0.00 | 0.00 | 0.00 | 94 | 1010.5 |
| 20260509092449 | 60 | 79 | 2.0 | 3.0 | 0.00 | 0.00 | 0.00 | 94 | 1010.7 |
| 20260509091947 | 61 | 70 | 1.0 | 3.0 | 0.00 | 0.00 | 0.00 | 94 | 1010.7 |
| 20260509091443 | 61 | 62 | 1.0 | 4.0 | 0.00 | 0.00 | 0.00 | 94 | 1010.9 |
| 20260509090941 | 61 | 95 | 5.0 | 5.0 | 0.00 | 0.00 | 0.00 | 94 | 1010.4 |
| 20260509090438 | 61 | 61 | 2.0 | 5.0 | 0.00 | 0.00 | 0.00 | 94 | 1010.5 |
| 20260509085936 | 61 | 70 | 3.0 | 3.0 | 0.00 | 0.00 | 0.00 | 95 | 1010.8 |
| 20260509085432 | 61 | 56 | 3.0 | 3.0 | 0.00 | 0.00 | 0.00 | 94 | 1010.8 |
| 20260509084928 | 61 | 49 | 3.0 | 5.0 | 0.00 | 0.00 | 0.00 | 94 | 1010.7 |
| 20260509084426 | 61 | 42 | 3.0 | 5.0 | 0.00 | 0.00 | 0.00 | 94 | 1010.6 |
| 20260509083923 | 61 | 35 | 2.0 | 4.0 | 0.00 | 0.00 | 0.00 | 94 | 1010.7 |
| 20260509083420 | 61 | 107 | 4.0 | 5.0 | 0.00 | 0.00 | 0.00 | 95 | 1011.0 |
| 20260509082917 | 61 | 37 | 3.0 | 4.0 | 0.00 | 0.00 | 0.00 | 95 | 1010.7 |
| 20260509082414 | 61 | 77 | 2.0 | 2.0 | 0.00 | 0.00 | 0.00 | 95 | 1010.8 |
| 20260509081911 | 61 | 99 | 1.0 | 2.0 | 0.00 | 0.00 | 0.00 | 95 | 1010.7 |
| 20260509081408 | 61 | 125 | 0.0 | 1.0 | 0.00 | 0.00 | 0.00 | 95 | 1010.9 |
| 20260509080906 | 61 | 147 | 0.0 | 0.0 | 0.00 | 0.00 | 0.00 | 95 | 1010.9 |
| 20260509080403 | 61 | 212 | 0.0 | 0.0 | 0.00 | 0.00 | 0.00 | 95 | 1010.8 |
| 20260509075902 | 61 | 89 | 0.0 | 1.0 | 0.00 | 0.00 | 0.00 | 95 | 1011.0 |
| 20260509075358 | 61 | 89 | 0.0 | 1.0 | 0.00 | 0.00 | 0.00 | 95 | 1010.9 |
| 20260509074856 | 61 | 115 | 0.0 | 2.0 | 0.00 | 0.00 | 0.00 | 95 | 1010.9 |
| 20260509074353 | 61 | 142 | 0.0 | 0.0 | 0.00 | 0.00 | 0.00 | 95 | 1010.8 |
| 20260509073849 | 61 | 217 | 0.0 | 1.0 | 0.00 | 0.00 | 0.00 | 95 | 1010.7 |
| 20260509073346 | 61 | 142 | 0.0 | 0.0 | 0.00 | 0.00 | 0.00 | 95 | 1010.9 |
| 20260509072842 | 61 | 212 | 0.0 | 0.0 | 0.00 | 0.00 | 0.00 | 94 | 1010.7 |
| 20260509072339 | 61 | 129 | 0.0 | 1.0 | 0.00 | 0.00 | 0.00 | 94 | 1010.9 |
| 20260509071836 | 61 | 230 | 0.0 | 0.0 | 0.00 | 0.00 | 0.00 | 94 | 1010.9 |
| 20260509071333 | 61 | 147 | 0.0 | 0.0 | 0.00 | 0.00 | 0.00 | 94 | 1010.8 |
| 20260509070830 | 61 | 135 | 0.0 | 0.0 | 0.00 | 0.00 | 0.00 | 94 | 1010.9 |
| 20260509070326 | 61 | 224 | 0.0 | 0.0 | 0.00 | 0.00 | 0.00 | 94 | 1011.0 |
| 20260509065823 | 62 | 145 | 0.0 | 0.0 | 0.00 | 0.00 | 0.00 | 94 | 1011.0 |
| 20260509065319 | 62 | 304 | 0.0 | 0.0 | 0.00 | 0.00 | 0.00 | 94 | 1011.0 |
| 20260509064815 | 62 | 224 | 0.0 | 0.0 | 0.00 | 0.00 | 0.00 | 94 | 1011.1 |
| 20260509064313 | 61 | 230 | 0.0 | 0.0 | 0.00 | 0.00 | 0.00 | 94 | 1011.2 |
| 20260509063810 | 61 | 147 | 0.0 | 2.0 | 0.00 | 0.00 | 0.00 | 93 | 1011.3 |
| 20260509063306 | 61 | 113 | 2.0 | 2.0 | 0.00 | 0.00 | 0.00 | 93 | 1011.4 |
| 20260509062804 | 62 | 142 | 0.0 | 0.0 | 0.00 | 0.00 | 0.00 | 92 | 1011.1 |
| 20260509062301 | 62 | 93 | 2.0 | 2.0 | 0.00 | 0.00 | 0.00 | 92 | 1011.3 |
| 20260509061758 | 62 | 55 | 0.0 | 0.0 | 0.00 | 0.00 | 0.00 | 92 | 1011.3 |
| 20260509061256 | 63 | 45 | 0.0 | 1.0 | 0.00 | 0.00 | 0.00 | 91 | 1011.5 |
| 20260509060752 | 63 | 229 | 0.0 | 1.0 | 0.00 | 0.00 | 0.00 | 92 | 1011.3 |
| 20260509060249 | 63 | 249 | 0.0 | 1.0 | 0.00 | 0.00 | 0.00 | 92 | 1011.2 |
| 20260509055745 | 63 | 216 | 1.0 | 2.0 | 0.00 | 0.00 | 0.00 | 92 | 1011.3 |
| 20260509055241 | 63 | 186 | 0.0 | 1.0 | 0.00 | 0.00 | 0.00 | 91 | 1011.3 |
| 20260509054737 | 63 | 237 | 0.0 | 2.0 | 0.00 | 0.00 | 0.00 | 91 | 1011.9 |
| 20260509054234 | 63 | 269 | 0.0 | 2.0 | 0.00 | 0.00 | 0.00 | 91 | 1012.0 |
| 20260509053733 | 63 | 237 | 0.0 | 1.0 | 0.00 | 0.00 | 0.00 | 91 | 1011.6 |
| 20260509053229 | 63 | 212 | 0.0 | 2.0 | 0.00 | 0.00 | 0.00 | 90 | 1011.4 |
| 20260509052727 | 63 | 235 | 2.0 | 4.0 | 0.00 | 0.00 | 0.00 | 90 | 1011.5 |
| 20260509052225 | 63 | 218 | 0.0 | 2.0 | 0.00 | 0.00 | 0.00 | 90 | 1011.8 |
| 20260509051722 | 63 | 217 | 0.0 | 3.0 | 0.00 | 0.00 | 0.00 | 90 | 1011.8 |
| 20260509051220 | 63 | 195 | 0.0 | 3.0 | 0.00 | 0.00 | 0.00 | 90 | 1011.9 |
| 20260509050717 | 63 | 210 | 2.0 | 4.0 | 0.00 | 0.00 | 0.00 | 90 | 1011.6 |
| 20260509050213 | 63 | 212 | 2.0 | 2.0 | 0.00 | 0.00 | 0.00 | 90 | 1011.5 |
| 20260509045710 | 63 | 168 | 1.0 | 2.0 | 0.00 | 0.06 | 0.06 | 90 | 1011.5 |
| 20260509045207 | 63 | 148 | 3.0 | 4.0 | 0.00 | 0.06 | 0.06 | 89 | 1011.3 |
| 20260509044705 | 63 | 46 | 0.0 | 3.0 | 0.00 | 0.06 | 0.06 | 89 | 1011.0 |
| 20260509044202 | 64 | 180 | 2.0 | 5.0 | 0.00 | 0.06 | 0.06 | 89 | 1011.1 |
| 20260509043658 | 64 | 103 | 2.0 | 4.0 | 0.00 | 0.06 | 0.06 | 89 | 1010.9 |
| 20260509043154 | 64 | 154 | 1.0 | 5.0 | 0.00 | 0.06 | 0.06 | 90 | 1010.5 |
| 20260509042651 | 64 | 129 | 0.0 | 3.0 | 0.00 | 0.06 | 0.06 | 92 | 1010.3 |
| 20260509042147 | 64 | 112 | 2.0 | 2.0 | 0.00 | 0.06 | 0.06 | 92 | 1010.3 |
| 20260509041643 | 64 | 135 | 0.0 | 1.0 | 0.00 | 0.06 | 0.06 | 92 | 1010.1 |
| 20260509041141 | 64 | 113 | 0.0 | 0.0 | 0.00 | 0.06 | 0.06 | 92 | 1009.9 |
| 20260509040639 | 64 | 129 | 0.0 | 1.0 | 0.00 | 0.06 | 0.06 | 92 | 1010.0 |
| 20260509040136 | 64 | 212 | 0.0 | 1.0 | 0.00 | 0.06 | 0.06 | 92 | 1010.1 |
| 20260509035633 | 64 | 230 | 0.0 | 0.0 | 0.00 | 0.06 | 0.06 | 92 | 1010.3 |
| 20260509035129 | 64 | 224 | 0.0 | 1.0 | 0.00 | 0.06 | 0.06 | 91 | 1010.4 |
| 20260509034627 | 64 | 113 | 0.0 | 1.0 | 0.00 | 0.06 | 0.06 | 91 | 1010.6 |
| 20260509034124 | 64 | 230 | 0.0 | 1.0 | 0.00 | 0.06 | 0.06 | 91 | 1010.3 |